createdAt,value
2018-05-12T00:00:56.157Z,60.80
2018-05-12T00:03:22.752Z,60.70
2018-05-12T00:05:54.321Z,60.60
2018-05-12T00:08:20.718Z,60.90
2018-05-12T00:10:47.773Z,61.30
2018-05-12T00:13:14.101Z,61.30
2018-05-12T00:15:40.453Z,62.10
2018-05-12T00:18:06.774Z,62.20
2018-05-12T00:20:33.116Z,62.60
2018-05-12T00:22:59.458Z,63.00
2018-05-12T00:25:25.962Z,62.70
2018-05-12T00:27:52.305Z,63.30
2018-05-12T00:30:18.624Z,63.70
2018-05-12T00:32:44.982Z,64.20
2018-05-12T00:35:12.353Z,64.00
2018-05-12T00:37:38.673Z,64.00
2018-05-12T00:40:05.766Z,65.20
2018-05-12T00:42:32.815Z,65.00
2018-05-12T00:45:00.117Z,65.10
2018-05-12T00:47:26.429Z,65.00
2018-05-12T00:49:53.025Z,65.20
2018-05-12T00:52:19.372Z,65.20
2018-05-12T00:54:45.861Z,65.80
2018-05-12T00:57:12.188Z,64.90
2018-05-12T00:59:39.260Z,65.30
2018-05-12T01:02:05.581Z,65.30
2018-05-12T01:04:32.069Z,65.20
2018-05-12T01:06:58.414Z,65.20
2018-05-12T01:09:24.762Z,66.00
2018-05-12T01:11:51.149Z,66.30
2018-05-12T01:14:17.520Z,66.10
2018-05-12T01:16:43.840Z,65.80
2018-05-12T01:19:10.189Z,66.00
2018-05-12T01:21:36.498Z,66.20
2018-05-12T01:24:02.858Z,65.90
2018-05-12T01:26:29.181Z,65.30
2018-05-12T01:28:55.557Z,65.40
2018-05-12T01:31:22.801Z,65.70
2018-05-12T01:33:49.881Z,64.80
2018-05-12T01:36:16.213Z,64.80
2018-05-12T01:38:42.586Z,64.30
2018-05-12T01:41:08.956Z,64.20
2018-05-12T01:43:35.317Z,64.00
2018-05-12T01:46:02.385Z,64.20
2018-05-12T01:48:28.729Z,64.10
2018-05-12T01:50:55.805Z,64.50
2018-05-12T01:53:22.865Z,65.60
2018-05-12T01:55:49.174Z,65.30
2018-05-12T01:58:15.513Z,66.10
2018-05-12T02:00:41.828Z,66.60
2018-05-12T02:03:08.135Z,66.70
2018-05-12T02:05:34.625Z,67.20
2018-05-12T02:08:00.946Z,67.20
2018-05-12T02:10:28.037Z,67.60
2018-05-12T02:12:54.461Z,67.50
2018-05-12T02:15:20.926Z,67.00
2018-05-12T02:17:47.384Z,66.40
2018-05-12T02:20:13.759Z,66.70
2018-05-12T02:22:40.086Z,66.80
2018-05-12T02:25:06.502Z,67.10
2018-05-12T02:27:32.838Z,68.10
2018-05-12T02:29:59.159Z,67.40
2018-05-12T02:32:25.518Z,67.20
2018-05-12T02:34:52.025Z,66.70
2018-05-12T02:37:19.091Z,66.60
2018-05-12T02:39:46.294Z,66.10
2018-05-12T02:42:12.617Z,66.00
2018-05-12T02:44:39.054Z,65.80
2018-05-12T02:47:05.390Z,65.90
2018-05-12T02:49:31.709Z,64.90
2018-05-12T02:51:58.065Z,65.30
2018-05-12T02:54:24.578Z,65.90
2018-05-12T02:56:50.885Z,66.40
2018-05-12T02:59:17.261Z,65.70
2018-05-12T03:01:44.382Z,66.50
2018-05-12T03:04:10.779Z,66.50
2018-05-12T03:06:37.157Z,66.40
2018-05-12T03:09:03.561Z,66.30
2018-05-12T03:11:30.624Z,66.40
2018-05-12T03:13:56.962Z,65.60
2018-05-12T03:16:23.346Z,65.50
2018-05-12T03:18:49.737Z,65.10
2018-05-12T03:21:17.565Z,65.20
2018-05-12T03:23:43.901Z,65.00
2018-05-12T03:26:10.225Z,64.80
2018-05-12T03:28:36.541Z,65.40
2018-05-12T03:31:02.947Z,66.10
2018-05-12T03:33:30.050Z,66.20
2018-05-12T03:35:56.377Z,66.20
2018-05-12T03:38:22.745Z,66.30
2018-05-12T03:40:49.090Z,66.90
2018-05-12T03:43:16.222Z,67.70
2018-05-12T03:45:42.581Z,67.70
2018-05-12T03:48:08.898Z,67.40
2018-05-12T03:50:36.009Z,67.10
2018-05-12T03:53:02.358Z,67.10
2018-05-12T03:55:28.909Z,67.00
2018-05-12T03:57:56.030Z,67.40
2018-05-12T04:00:23.110Z,67.70
2018-05-12T04:02:49.484Z,67.60
2018-05-12T04:05:28.202Z,68.00
2018-05-12T04:08:06.666Z,67.70
2018-05-12T04:10:42.032Z,68.00
2018-05-12T04:13:08.450Z,68.90
2018-05-12T04:15:34.985Z,68.80
2018-05-12T04:18:01.313Z,68.70
2018-05-12T04:20:27.699Z,69.10
2018-05-12T04:22:54.041Z,68.80
2018-05-12T04:25:20.506Z,68.10
2018-05-12T04:27:46.874Z,67.80
2018-05-12T04:30:13.200Z,67.70
2018-05-12T04:32:39.559Z,67.90
2018-05-12T04:35:06.334Z,67.90
2018-05-12T04:37:32.645Z,68.50
2018-05-12T04:39:58.985Z,68.50
2018-05-12T04:42:25.297Z,68.60
2018-05-12T04:44:51.924Z,68.60
2018-05-12T04:47:18.449Z,68.40
2018-05-12T04:49:44.818Z,67.90
2018-05-12T04:52:11.134Z,67.60
2018-05-12T04:54:37.503Z,67.80
2018-05-12T04:57:03.852Z,68.20
2018-05-12T04:59:30.914Z,67.70
2018-05-12T05:01:57.230Z,67.70
2018-05-12T05:04:24.341Z,68.50
2018-05-12T05:06:50.741Z,68.40
2018-05-12T05:09:17.077Z,68.60
2018-05-12T05:11:43.410Z,68.60
2018-05-12T05:14:09.763Z,68.70
2018-05-12T05:16:36.081Z,68.80
2018-05-12T05:19:02.402Z,69.10
2018-05-12T05:21:28.746Z,69.80
2018-05-12T05:23:55.109Z,70.10
2018-05-12T05:26:21.513Z,70.60
2018-05-12T05:28:48.721Z,71.50
2018-05-12T05:31:15.064Z,70.70
2018-05-12T05:33:41.389Z,70.60
2018-05-12T05:36:07.702Z,70.50
2018-05-12T05:38:34.829Z,70.70
2018-05-12T05:41:01.149Z,70.70
2018-05-12T05:43:27.485Z,70.40
2018-05-12T05:45:54.057Z,70.60
2018-05-12T05:48:21.110Z,70.10
2018-05-12T05:50:48.202Z,67.90
2018-05-12T05:53:14.506Z,67.90
2018-05-12T05:55:41.110Z,68.20
2018-05-12T05:58:07.466Z,68.10
2018-05-12T06:00:33.797Z,67.00
2018-05-12T06:03:00.103Z,66.20
2018-05-12T06:05:27.581Z,63.20
2018-05-12T06:07:53.882Z,63.10
2018-05-12T06:10:21.763Z,61.10
2018-05-12T06:12:48.149Z,61.10
2018-05-12T06:15:14.606Z,60.00
2018-05-12T06:17:40.934Z,59.00
2018-05-12T06:20:08.037Z,58.30
2018-05-12T06:22:34.371Z,58.30
2018-05-12T06:25:00.730Z,57.60
2018-05-12T06:27:27.057Z,57.20
2018-05-12T06:29:54.169Z,56.10
2018-05-12T06:32:20.609Z,56.10
2018-05-12T06:34:52.133Z,54.80
2018-05-12T06:37:19.250Z,52.50
2018-05-12T06:39:45.565Z,52.40
2018-05-12T06:42:12.614Z,51.90
2018-05-12T06:44:39.183Z,51.90
2018-05-12T06:47:05.491Z,49.20
2018-05-12T06:49:31.784Z,48.00
2018-05-12T06:51:58.136Z,48.80
2018-05-12T06:54:24.697Z,47.00
2018-05-12T06:56:51.034Z,47.60
2018-05-12T06:59:17.401Z,47.40
2018-05-12T07:01:43.718Z,47.00
2018-05-12T07:04:11.145Z,42.50
2018-05-12T07:06:37.533Z,42.40
2018-05-12T07:09:03.925Z,43.80
2018-05-12T07:11:30.554Z,43.10
2018-05-12T07:13:58.381Z,41.70
2018-05-12T07:16:24.727Z,41.60
2018-05-12T07:18:51.783Z,40.40
2018-05-12T07:21:18.190Z,40.40
2018-05-12T07:23:44.513Z,40.50
2018-05-12T07:26:10.860Z,40.70
2018-05-12T07:28:37.169Z,41.10
2018-05-12T07:31:03.505Z,38.60
2018-05-12T07:33:29.818Z,39.00
2018-05-12T07:35:56.891Z,40.40
2018-05-12T07:38:23.249Z,40.40
2018-05-12T07:40:49.580Z,40.00
2018-05-12T07:43:15.978Z,39.90
2018-05-12T07:45:42.314Z,38.30
2018-05-12T07:48:08.661Z,38.50
2018-05-12T07:50:34.981Z,40.00
2018-05-12T07:53:01.352Z,37.70
2018-05-12T07:55:27.798Z,39.20
2018-05-12T07:57:54.880Z,37.50
2018-05-12T08:00:21.275Z,37.10
2018-05-12T08:02:47.597Z,36.00
2018-05-12T08:05:14.262Z,36.70
2018-05-12T08:07:40.597Z,35.10
2018-05-12T08:10:06.957Z,36.30
2018-05-12T08:12:33.305Z,35.50
2018-05-12T08:14:59.754Z,36.20
2018-05-12T08:17:26.114Z,34.70
2018-05-12T08:19:52.538Z,34.10
2018-05-12T08:22:19.287Z,39.00
2018-05-12T08:24:49.715Z,41.30
2018-05-12T08:27:16.038Z,41.60
2018-05-12T08:29:43.168Z,40.90
2018-05-12T08:32:09.518Z,40.60
2018-05-12T08:34:37.067Z,40.50
2018-05-12T08:37:03.486Z,39.80
2018-05-12T08:39:29.840Z,38.80
2018-05-12T08:41:57.046Z,37.80
2018-05-12T08:44:24.149Z,38.20
2018-05-12T08:46:50.685Z,38.20
2018-05-12T08:49:17.069Z,37.80
2018-05-12T08:51:43.419Z,37.40
2018-05-12T08:54:09.773Z,37.10
2018-05-12T08:56:37.068Z,37.80
2018-05-12T08:59:03.425Z,37.70
2018-05-12T09:01:29.880Z,37.30
2018-05-12T09:03:56.198Z,37.00
2018-05-12T09:06:22.786Z,37.30
2018-05-12T09:08:49.961Z,36.40
2018-05-12T09:11:16.321Z,36.40
2018-05-12T09:13:42.638Z,37.50
2018-05-12T09:16:08.984Z,36.90
2018-05-12T09:18:35.550Z,37.70
2018-05-12T09:21:02.640Z,36.70
2018-05-12T09:23:29.120Z,36.60
2018-05-12T09:25:56.291Z,37.20
2018-05-12T09:28:22.794Z,37.10
2018-05-12T09:30:49.267Z,37.80
2018-05-12T09:33:15.665Z,37.40
2018-05-12T09:35:41.997Z,36.90
2018-05-12T09:38:08.409Z,38.20
2018-05-12T09:40:34.740Z,37.30
2018-05-12T09:43:01.834Z,35.20
2018-05-12T09:45:28.898Z,34.40
2018-05-12T09:47:55.938Z,34.30
2018-05-12T09:50:22.537Z,34.20
2018-05-12T09:52:48.896Z,34.00
2018-05-12T09:55:16.006Z,35.80
2018-05-12T09:57:42.338Z,35.80
2018-05-12T10:00:08.718Z,36.40
2018-05-12T10:02:35.030Z,36.60
2018-05-12T10:05:01.535Z,35.20
2018-05-12T10:07:27.904Z,35.90
2018-05-12T10:09:54.245Z,34.40
2018-05-12T10:12:21.591Z,36.20
2018-05-12T10:14:48.064Z,36.10
2018-05-12T10:17:14.386Z,35.10
2018-05-12T10:19:40.721Z,34.10
2018-05-12T10:22:07.131Z,33.50
2018-05-12T10:24:34.448Z,32.50
2018-05-12T10:27:00.786Z,33.00
2018-05-12T10:29:27.118Z,31.60
2018-05-12T10:31:54.258Z,31.40
2018-05-12T10:34:20.616Z,31.40
2018-05-12T10:36:47.733Z,34.50
2018-05-12T10:39:14.074Z,34.40
2018-05-12T10:41:40.421Z,32.00
2018-05-12T10:44:07.510Z,31.10
2018-05-12T10:46:33.882Z,31.00
2018-05-12T10:49:00.210Z,30.00
2018-05-12T10:51:26.585Z,31.70
2018-05-12T10:53:52.957Z,31.50
2018-05-12T10:56:19.289Z,31.70
2018-05-12T10:58:45.651Z,32.00
2018-05-12T11:01:12.709Z,31.50
2018-05-12T11:03:39.768Z,32.10
2018-05-12T11:06:06.152Z,31.90
2018-05-12T11:08:32.458Z,30.90
2018-05-12T11:10:58.809Z,32.30
2018-05-12T11:13:25.210Z,31.50
2018-05-12T11:15:51.637Z,32.70
2018-05-12T11:18:17.933Z,32.30
2018-05-12T11:20:44.973Z,31.70
2018-05-12T11:23:11.366Z,31.60
2018-05-12T11:25:38.721Z,32.00
2018-05-12T11:28:05.053Z,31.30
2018-05-12T11:30:31.389Z,31.10
2018-05-12T11:32:57.697Z,29.70
2018-05-12T11:35:24.026Z,30.50
2018-05-12T11:37:50.535Z,29.10
2018-05-12T11:40:17.596Z,29.50
2018-05-12T11:42:44.667Z,28.90
2018-05-12T11:45:11.001Z,28.90
2018-05-12T11:47:37.325Z,29.20
2018-05-12T11:50:03.667Z,29.10
2018-05-12T11:52:30.035Z,30.00
2018-05-12T11:54:56.928Z,29.60
2018-05-12T11:57:23.483Z,29.30
2018-05-12T11:59:50.589Z,28.40
2018-05-12T12:02:17.637Z,29.20
2018-05-12T12:04:44.853Z,29.50
2018-05-12T12:07:11.203Z,29.50
2018-05-12T12:09:37.531Z,29.30
2018-05-12T12:12:04.614Z,29.00
2018-05-12T12:14:30.985Z,29.00
2018-05-12T12:16:57.293Z,29.30
2018-05-12T12:19:23.605Z,28.90
2018-05-12T12:21:49.937Z,28.20
2018-05-12T12:24:16.325Z,27.50
2018-05-12T12:26:42.744Z,28.50
2018-05-12T12:29:09.089Z,27.80
2018-05-12T12:31:35.409Z,28.20
2018-05-12T12:34:01.732Z,29.10
2018-05-12T12:36:28.331Z,29.00
2018-05-12T12:38:54.681Z,28.90
2018-05-12T12:41:21.129Z,28.00
2018-05-12T12:43:47.457Z,28.90
2018-05-12T12:46:13.809Z,28.70
2018-05-12T12:48:40.125Z,27.90
2018-05-12T12:51:07.193Z,27.70
2018-05-12T12:53:33.538Z,27.70
2018-05-12T12:55:59.857Z,27.70
2018-05-12T12:58:26.300Z,27.90
2018-05-12T13:00:52.676Z,27.90
2018-05-12T13:03:18.997Z,27.90
2018-05-12T13:05:45.309Z,29.10
2018-05-12T13:08:11.649Z,29.10
2018-05-12T13:10:37.951Z,29.80
2018-05-12T13:13:04.289Z,30.70
2018-05-12T13:15:31.362Z,31.10
2018-05-12T13:17:57.709Z,31.10
2018-05-12T13:20:24.061Z,31.60
2018-05-12T13:22:50.429Z,31.60
2018-05-12T13:25:16.879Z,32.40
2018-05-12T13:27:43.946Z,33.10
2018-05-12T13:30:10.294Z,33.10
2018-05-12T13:32:36.596Z,33.60
2018-05-12T13:35:03.009Z,34.40
2018-05-12T13:37:30.073Z,35.10
2018-05-12T13:39:57.217Z,35.80
2018-05-12T13:42:23.585Z,35.80
2018-05-12T13:44:50.060Z,36.20
2018-05-12T13:47:16.389Z,34.60
2018-05-12T13:49:42.729Z,35.70
2018-05-12T13:52:09.794Z,35.10
2018-05-12T13:54:36.185Z,35.10
2018-05-12T13:57:02.568Z,34.90
2018-05-12T13:59:28.877Z,34.80
2018-05-12T14:01:55.981Z,35.80
2018-05-12T14:04:22.459Z,35.70
2018-05-12T14:06:48.870Z,36.40
2018-05-12T14:09:15.177Z,36.50
2018-05-12T14:11:41.530Z,36.40
2018-05-12T14:14:07.843Z,35.60
2018-05-12T14:16:34.389Z,35.70
2018-05-12T14:19:00.766Z,35.80
2018-05-12T14:21:27.154Z,35.40
2018-05-12T14:23:53.505Z,35.60
2018-05-12T14:26:19.949Z,36.40
2018-05-12T14:28:46.234Z,36.70
2018-05-12T14:31:12.570Z,36.60
2018-05-12T14:33:38.905Z,37.10
2018-05-12T14:36:05.217Z,37.00
2018-05-12T14:38:31.542Z,38.20
2018-05-12T14:40:57.893Z,35.90
2018-05-12T14:43:24.960Z,34.70
2018-05-12T14:45:51.285Z,34.70
2018-05-12T14:48:17.610Z,34.90
2018-05-12T14:50:44.710Z,34.00
2018-05-12T14:53:11.022Z,34.00
2018-05-12T14:55:37.331Z,32.50
2018-05-12T14:58:03.673Z,34.10
2018-05-12T15:00:29.982Z,33.10
2018-05-12T15:02:56.378Z,34.60
2018-05-12T15:05:23.012Z,33.60
2018-05-12T15:07:49.341Z,33.90
2018-05-12T15:10:15.805Z,31.70
2018-05-12T15:12:42.113Z,34.30
2018-05-12T15:15:08.522Z,33.80
2018-05-12T15:17:34.833Z,33.80
2018-05-12T15:20:01.146Z,33.20
2018-05-12T15:22:27.617Z,33.30
2018-05-12T15:24:54.114Z,34.10
2018-05-12T15:27:22.026Z,31.30
2018-05-12T15:29:48.394Z,31.30
2018-05-12T15:32:14.707Z,32.00
2018-05-12T15:34:41.423Z,32.10
2018-05-12T15:37:07.732Z,33.60
2018-05-12T15:39:34.046Z,31.70
2018-05-12T15:42:00.395Z,34.00
2018-05-12T15:44:26.781Z,32.00
2018-05-12T15:46:53.205Z,30.30
2018-05-12T15:49:19.535Z,30.00
2018-05-12T15:51:45.849Z,30.00
2018-05-12T15:54:12.173Z,29.80
2018-05-12T15:56:39.261Z,31.00
2018-05-12T15:59:05.575Z,30.40
2018-05-12T16:01:31.901Z,29.80
2018-05-12T16:03:58.224Z,30.80
2018-05-12T16:06:25.341Z,32.10
2018-05-12T16:08:51.716Z,32.10
2018-05-12T16:11:18.101Z,31.00
2018-05-12T16:13:45.159Z,30.10
2018-05-12T16:16:11.465Z,30.00
2018-05-12T16:18:37.865Z,31.90
2018-05-12T16:21:04.221Z,32.40
2018-05-12T16:23:30.632Z,32.70
2018-05-12T16:25:57.025Z,33.00
2018-05-12T16:28:24.125Z,33.70
2018-05-12T16:30:50.489Z,33.70
2018-05-12T16:33:16.865Z,34.30
2018-05-12T16:35:43.209Z,34.40
2018-05-12T16:38:10.631Z,34.60
2018-05-12T16:40:37.693Z,34.60
2018-05-12T16:43:04.049Z,34.60
2018-05-12T16:45:30.593Z,33.50
2018-05-12T16:47:57.027Z,34.40
2018-05-12T16:50:23.402Z,34.50
2018-05-12T16:52:49.734Z,32.40
2018-05-12T16:55:16.177Z,33.40
2018-05-12T16:57:42.480Z,32.80
2018-05-12T17:00:08.850Z,33.20
2018-05-12T17:02:35.149Z,34.30
2018-05-12T17:05:02.290Z,33.30
2018-05-12T17:07:28.665Z,33.30
2018-05-12T17:09:55.062Z,33.10
2018-05-12T17:12:21.445Z,34.00
2018-05-12T17:14:47.858Z,35.50
2018-05-12T17:17:14.165Z,36.50
2018-05-12T17:19:40.493Z,37.20
2018-05-12T17:22:07.561Z,39.00
2018-05-12T17:24:34.000Z,38.60
2018-05-12T17:27:00.329Z,39.90
2018-05-12T17:29:27.545Z,39.80
2018-05-12T17:31:54.022Z,39.90
2018-05-12T17:34:20.385Z,38.40
2018-05-12T17:36:46.717Z,38.80
2018-05-12T17:39:13.049Z,38.70
2018-05-12T17:41:39.365Z,37.70
2018-05-12T17:44:05.713Z,36.00
2018-05-12T17:46:32.842Z,39.40
2018-05-12T17:48:59.174Z,39.40
2018-05-12T17:51:25.546Z,40.80
2018-05-12T17:53:51.885Z,41.20
2018-05-12T17:56:18.214Z,41.30
2018-05-12T17:58:45.309Z,42.10
2018-05-12T18:01:11.625Z,41.20
2018-05-12T18:03:37.954Z,41.30
2018-05-12T18:06:04.375Z,41.50
2018-05-12T18:08:30.670Z,41.40
2018-05-12T18:10:57.014Z,41.60
2018-05-12T18:13:23.339Z,42.30
2018-05-12T18:15:49.720Z,42.30
2018-05-12T18:18:16.085Z,42.40
2018-05-12T18:20:42.409Z,42.00
2018-05-12T18:23:08.835Z,42.10
2018-05-12T18:25:35.188Z,42.60
2018-05-12T18:28:01.497Z,42.40
2018-05-12T18:30:27.895Z,42.60
2018-05-12T18:32:54.341Z,43.20
2018-05-12T18:35:20.779Z,43.00
2018-05-12T18:37:47.110Z,42.90
2018-05-12T18:40:13.479Z,42.90
2018-05-12T18:42:39.826Z,43.50
2018-05-12T18:45:06.248Z,43.70
2018-05-12T18:47:32.556Z,44.30
2018-05-12T18:49:59.697Z,45.00
2018-05-12T18:52:26.021Z,44.30
2018-05-12T18:54:52.430Z,44.80
2018-05-12T18:57:18.785Z,44.20
2018-05-12T18:59:45.093Z,44.30
2018-05-12T19:02:11.425Z,44.50
2018-05-12T19:04:37.729Z,44.50
2018-05-12T19:07:04.048Z,45.00
2018-05-12T19:09:30.421Z,45.40
2018-05-12T19:11:56.981Z,45.30
2018-05-12T19:14:24.143Z,45.30
2018-05-12T19:16:50.469Z,45.20
2018-05-12T19:19:16.787Z,45.30
2018-05-12T19:21:43.127Z,45.80
2018-05-12T19:24:10.189Z,46.60
2018-05-12T19:26:36.493Z,46.00
2018-05-12T19:29:02.873Z,46.20
2018-05-12T19:31:29.241Z,46.60
2018-05-12T19:33:55.649Z,46.50
2018-05-12T19:36:22.693Z,46.80
2018-05-12T19:38:49.029Z,46.80
2018-05-12T19:41:16.090Z,46.60
2018-05-12T19:43:42.442Z,46.40
2018-05-12T19:46:08.749Z,46.30
2018-05-12T19:48:35.841Z,45.90
2018-05-12T19:51:02.201Z,45.90
2018-05-12T19:53:30.041Z,46.40
2018-05-12T19:55:56.865Z,46.40
2018-05-12T19:58:23.309Z,46.20
2018-05-12T20:00:49.619Z,46.20
2018-05-12T20:03:15.977Z,46.40
2018-05-12T20:05:42.546Z,46.60
2018-05-12T20:08:09.614Z,46.50
2018-05-12T20:10:36.777Z,46.30
2018-05-12T20:13:03.944Z,45.90
2018-05-12T20:15:30.700Z,45.80
2018-05-12T20:17:58.189Z,46.40
2018-05-12T20:20:24.714Z,47.00
2018-05-12T20:22:51.045Z,47.20
2018-05-12T20:25:17.591Z,47.10
2018-05-12T20:27:43.909Z,47.00
2018-05-12T20:30:10.262Z,47.10
2018-05-12T20:32:37.321Z,46.80
2018-05-12T20:35:03.733Z,46.70
2018-05-12T20:37:30.195Z,46.80
2018-05-12T20:39:56.492Z,47.40
2018-05-12T20:42:22.834Z,47.40
2018-05-12T20:44:49.274Z,47.70
2018-05-12T20:47:16.339Z,48.30
2018-05-12T20:49:43.430Z,48.30
2018-05-12T20:52:09.954Z,48.30
2018-05-12T20:54:36.308Z,48.30
2018-05-12T20:57:02.679Z,48.40
2018-05-12T20:59:28.997Z,48.00
2018-05-12T21:01:56.141Z,49.40
2018-05-12T21:04:22.509Z,49.40
2018-05-12T21:06:48.890Z,50.60
2018-05-12T21:09:15.229Z,50.10
2018-05-12T21:11:41.537Z,50.50
2018-05-12T21:14:08.667Z,51.10
2018-05-12T21:16:34.945Z,51.10
2018-05-12T21:19:01.263Z,51.00
2018-05-12T21:21:27.650Z,50.90
2018-05-12T21:23:53.980Z,51.00
2018-05-12T21:26:20.320Z,51.10
2018-05-12T21:28:46.649Z,50.90
2018-05-12T21:31:12.993Z,50.80
2018-05-12T21:33:39.332Z,51.10
2018-05-12T21:36:05.692Z,51.40
2018-05-12T21:38:32.005Z,51.50
2018-05-12T21:40:58.349Z,51.70
2018-05-12T21:43:24.664Z,51.90
2018-05-12T21:45:51.174Z,51.80
2018-05-12T21:48:17.498Z,51.60
2018-05-12T21:50:43.813Z,51.60
2018-05-12T21:53:10.149Z,52.10
2018-05-12T21:55:36.621Z,51.90
2018-05-12T21:58:02.956Z,52.20
2018-05-12T22:00:29.333Z,52.30
2018-05-12T22:02:55.785Z,52.40
2018-05-12T22:05:22.196Z,52.20
2018-05-12T22:07:49.314Z,52.70
2018-05-12T22:10:15.657Z,52.70
2018-05-12T22:12:42.010Z,52.60
2018-05-12T22:15:09.312Z,52.40
2018-05-12T22:17:35.645Z,52.40
2018-05-12T22:20:02.078Z,52.20
2018-05-12T22:22:28.530Z,52.10
2018-05-12T22:24:55.062Z,52.20
2018-05-12T22:27:21.389Z,52.10
2018-05-12T22:29:47.697Z,52.10
2018-05-12T22:32:14.022Z,52.30
2018-05-12T22:34:40.353Z,52.50
2018-05-12T22:37:06.664Z,52.60
2018-05-12T22:39:33.026Z,51.50
2018-05-12T22:41:59.416Z,51.40
2018-05-12T22:44:25.717Z,51.90
2018-05-12T22:46:52.080Z,52.00
2018-05-12T22:49:18.609Z,51.70
2018-05-12T22:51:44.925Z,51.50
2018-05-12T22:54:11.278Z,50.80
2018-05-12T22:56:37.578Z,50.90
2018-05-12T22:59:03.947Z,51.30
2018-05-12T23:01:30.325Z,51.00
2018-05-12T23:03:56.828Z,51.00
2018-05-12T23:06:23.189Z,50.70
2018-05-12T23:08:49.529Z,49.90
2018-05-12T23:11:15.849Z,49.20
2018-05-12T23:13:42.305Z,50.10
2018-05-12T23:16:08.938Z,50.20
2018-05-12T23:18:35.253Z,50.50
2018-05-12T23:21:02.410Z,50.40
2018-05-12T23:23:28.879Z,50.40
2018-05-12T23:25:55.377Z,49.30
2018-05-12T23:28:21.781Z,49.80
2018-05-12T23:30:48.110Z,49.50
2018-05-12T23:33:14.489Z,50.20
2018-05-12T23:35:40.905Z,50.50
2018-05-12T23:38:07.232Z,50.50
2018-05-12T23:40:35.074Z,50.80
2018-05-12T23:43:01.596Z,50.80
2018-05-12T23:45:28.022Z,51.10
2018-05-12T23:47:54.320Z,51.10
2018-05-12T23:50:20.649Z,51.20
2018-05-12T23:52:47.040Z,50.90
2018-05-12T23:55:13.504Z,51.20
2018-05-12T23:57:39.837Z,51.80
